Time;durP1;ratioP1;P1;durP2;ratioP2;P2;SDS_P1;SDS_P2;PMS_P1;PMS_P2;Temp;Humidity;BMP_temperature;BMP_pressure;BME280_temperature;BME280_humidity;BME280_pressure;Samples;Min_cycle;Max_cycle;Signal;HPM_P1;HPM_P2
2022/01/23 00:01:42;;;;;;;3.85;2.08;;;6.80;99.90;;;;;;10286777;28;87105;-55
2022/01/23 00:06:45;;;;;;;3.22;1.80;;;6.80;99.90;;;;;;10286018;28;87141;-55
2022/01/23 00:11:51;;;;;;;4.25;1.92;;;6.70;99.90;;;;;;10287628;28;85102;-52
2022/01/23 00:22:12;;;;;;;4.35;2.17;;;6.70;99.90;;;;;;10312963;28;84095;-54
2022/01/23 00:32:32;;;;;;;2.58;1.70;;;6.70;99.90;;;;;;10328005;28;84020;-52
2022/01/23 00:37:32;;;;;;;4.75;1.60;;;6.70;99.90;;;;;;10328172;28;84963;-55
2022/01/23 00:42:34;;;;;;;3.03;1.60;;;6.60;99.90;;;;;;10290396;28;85978;-51
2022/01/23 00:47:35;;;;;;;2.95;1.42;;;6.60;99.90;;;;;;10285155;28;84594;-50
2022/01/23 00:52:36;;;;;;;2.42;1.67;;;6.50;99.90;;;;;;10287220;28;87121;-51
2022/01/23 00:57:37;;;;;;;3.70;2.00;;;6.50;99.90;;;;;;10291550;28;85002;-53
2022/01/23 01:02:38;;;;;;;2.13;1.50;;;6.60;99.90;;;;;;10291224;28;84088;-53
2022/01/23 01:07:38;;;;;;;2.92;1.50;;;6.50;99.90;;;;;;10291601;28;85991;-55
2022/01/23 01:12:44;;;;;;;3.15;1.58;;;6.50;99.90;;;;;;10291997;28;86644;-57
2022/01/23 01:38:41;;;;;;;3.65;1.50;;;6.50;99.90;;;;;;10290503;28;84963;-52
2022/01/23 01:43:41;;;;;;;2.05;1.15;;;6.50;99.90;;;;;;10291044;28;85967;-54
2022/01/23 01:48:42;;;;;;;3.22;1.35;;;6.60;99.90;;;;;;10291246;28;85657;-54
2022/01/23 01:53:52;;;;;;;6.68;1.80;;;6.50;99.90;;;;;;10290658;28;86257;-56
2022/01/23 02:09:43;;;;;;;5.32;1.65;;;6.40;99.90;;;;;;10289439;28;84701;-55
2022/01/23 02:15:13;;;;;;;2.95;1.60;;;6.30;99.90;;;;;;10290885;28;84111;-52
2022/01/23 02:52:45;;;;;;;2.85;1.48;;;6.10;99.90;;;;;;10289178;28;84171;-57
2022/01/23 02:58:01;;;;;;;6.88;2.13;;;6.30;99.90;;;;;;10288348;28;84707;-50
2022/01/23 03:03:12;;;;;;;4.55;2.25;;;6.40;99.90;;;;;;10286742;28;85912;-54
2022/01/23 03:08:44;;;;;;;4.22;2.00;;;6.40;99.90;;;;;;10287418;28;86726;-56
2022/01/23 03:13:53;;;;;;;4.90;2.60;;;6.40;99.90;;;;;;10287100;28;86165;-54
2022/01/23 03:24:27;;;;;;;4.82;1.90;;;6.30;99.90;;;;;;10286934;28;85802;-52
2022/01/23 03:29:40;;;;;;;3.67;2.22;;;6.30;99.90;;;;;;10287696;28;85067;-53
2022/01/23 03:34:41;;;;;;;6.60;2.20;;;6.30;99.90;;;;;;10294008;28;84109;-51
2022/01/23 03:39:41;;;;;;;4.43;2.08;;;6.20;99.90;;;;;;10314491;28;85611;-50
2022/01/23 03:44:54;;;;;;;3.53;2.47;;;6.20;99.90;;;;;;10327808;28;85363;-54
2022/01/23 03:49:55;;;;;;;5.97;2.95;;;6.20;99.90;;;;;;10309695;28;86022;-56
2022/01/23 03:55:08;;;;;;;4.93;2.75;;;6.20;99.90;;;;;;10294176;28;86677;-52
2022/01/23 04:00:10;;;;;;;4.60;2.45;;;6.20;99.90;;;;;;10318430;28;86909;-53
2022/01/23 04:05:14;;;;;;;6.28;3.00;;;6.20;99.90;;;;;;10310891;28;84644;-51
2022/01/23 04:10:17;;;;;;;7.03;3.28;;;6.20;99.90;;;;;;10315016;28;86959;-52
2022/01/23 05:03:37;;;;;;;10.30;3.17;;;6.30;99.90;;;;;;10331707;28;85751;-56
2022/01/23 05:08:35;;;;;;;6.63;4.10;;;6.20;99.90;;;;;;10321275;28;84598;-53
2022/01/23 05:13:51;;;;;;;7.60;3.45;;;6.20;99.90;;;;;;10332884;28;84095;-53
2022/01/23 05:18:53;;;;;;;7.28;3.72;;;6.20;99.90;;;;;;10330760;28;86796;-54
2022/01/23 05:23:54;;;;;;;7.35;3.63;;;6.30;99.90;;;;;;10331054;28;86008;-50
2022/01/23 05:28:55;;;;;;;7.32;4.30;;;6.30;99.90;;;;;;10330233;28;84141;-53
2022/01/23 05:33:56;;;;;;;6.40;3.63;;;6.40;99.90;;;;;;10332393;28;84141;-50
2022/01/23 05:38:57;;;;;;;8.38;4.05;;;6.40;99.90;;;;;;10324696;22;85786;-46
2022/01/23 05:43:58;;;;;;;11.52;4.30;;;6.40;99.90;;;;;;10289497;28;84219;-46
2022/01/23 05:48:59;;;;;;;7.95;4.10;;;6.30;99.90;;;;;;10284339;28;86859;-49
2022/01/23 05:54:11;;;;;;;6.82;3.45;;;6.30;99.90;;;;;;10283981;28;86970;-48
2022/01/23 05:59:35;;;;;;;9.73;4.47;;;6.30;99.90;;;;;;10267868;28;84370;-47
2022/01/23 06:04:37;;;;;;;9.57;3.90;;;6.40;99.90;;;;;;10286963;28;86873;-48
2022/01/23 06:09:53;;;;;;;11.07;4.07;;;6.30;99.90;;;;;;10261463;28;86712;-48
2022/01/23 06:14:54;;;;;;;8.88;4.07;;;6.20;99.90;;;;;;10286366;28;85932;-53
2022/01/23 06:19:55;;;;;;;7.97;4.63;;;6.30;99.90;;;;;;10286107;28;86447;-48
2022/01/23 06:25:19;;;;;;;11.02;5.03;;;6.30;99.90;;;;;;10255538;28;85060;-48
2022/01/23 06:30:46;;;;;;;13.23;4.43;;;6.30;99.90;;;;;;10285854;28;85366;-49
2022/01/23 06:35:46;;;;;;;11.25;4.97;;;6.30;99.90;;;;;;10286013;28;87002;-47
2022/01/23 06:40:47;;;;;;;10.73;5.40;;;6.40;99.90;;;;;;10283575;28;84937;-43
2022/01/23 06:46:08;;;;;;;9.73;4.75;;;6.40;99.90;;;;;;10285272;28;85765;-50
2022/01/23 06:51:08;;;;;;;14.23;5.65;;;6.40;99.90;;;;;;10286273;28;84180;-49
2022/01/23 06:56:09;;;;;;;9.88;5.43;;;6.50;99.90;;;;;;10284253;28;86186;-43
2022/01/23 07:01:10;;;;;;;8.75;4.28;;;6.50;99.90;;;;;;10284598;28;86042;-48
2022/01/23 07:06:16;;;;;;;8.80;4.03;;;6.50;99.90;;;;;;10284580;28;87034;-47
2022/01/23 07:11:34;;;;;;;11.60;4.50;;;6.50;99.90;;;;;;10284636;28;87037;-47
2022/01/23 07:17:13;;;;;;;11.35;4.60;;;6.50;99.90;;;;;;10159192;28;84911;-45
2022/01/23 07:22:26;;;;;;;8.65;4.32;;;6.40;99.90;;;;;;10260859;28;86033;-50
2022/01/23 07:27:31;;;;;;;7.85;3.58;;;6.40;99.90;;;;;;10282524;28;86352;-47
2022/01/23 07:32:31;;;;;;;11.20;4.38;;;6.40;99.90;;;;;;10279262;28;86775;-49
2022/01/23 07:37:32;;;;;;;9.02;4.47;;;6.30;99.90;;;;;;10269210;28;86252;-47
2022/01/23 07:42:55;;;;;;;8.05;4.70;;;6.40;99.90;;;;;;10273745;28;84453;-49
2022/01/23 07:48:15;;;;;;;8.23;4.43;;;6.40;99.90;;;;;;10284725;28;84258;-49
2022/01/23 07:53:35;;;;;;;11.55;4.85;;;6.40;99.90;;;;;;10285089;28;87023;-53
2022/01/23 07:58:48;;;;;;;9.48;4.78;;;6.40;99.90;;;;;;10283084;28;85942;-48
2022/01/23 08:04:18;;;;;;;7.85;4.25;;;6.50;99.90;;;;;;10263602;28;84316;-48
2022/01/23 08:09:20;;;;;;;9.27;4.45;;;6.50;99.90;;;;;;10282824;28;85829;-53
2022/01/23 08:14:21;;;;;;;12.63;4.85;;;6.50;99.90;;;;;;10285569;28;84951;-47
2022/01/23 08:19:21;;;;;;;8.70;4.72;;;6.50;99.90;;;;;;10296798;28;84820;-43
2022/01/23 08:24:23;;;;;;;8.98;4.25;;;6.70;99.90;;;;;;10285579;28;85445;-48
2022/01/23 08:29:24;;;;;;;9.73;4.00;;;6.80;99.90;;;;;;10279041;28;84946;-47
2022/01/23 08:34:24;;;;;;;10.45;4.35;;;7.00;99.90;;;;;;10279531;28;84913;-55
2022/01/23 08:39:26;;;;;;;11.32;4.80;;;7.30;99.90;;;;;;10278681;28;84372;-54
2022/01/23 08:44:28;;;;;;;10.43;4.90;;;7.70;99.90;;;;;;10277177;28;84935;-62
2022/01/23 08:49:29;;;;;;;11.65;5.53;;;7.80;99.90;;;;;;10289879;28;86343;-59
2022/01/23 08:54:30;;;;;;;9.00;4.57;;;8.70;99.90;;;;;;10287471;28;84882;-51
2022/01/23 08:59:31;;;;;;;7.25;4.13;;;8.80;99.90;;;;;;10278846;28;85014;-48
2022/01/23 09:04:32;;;;;;;8.43;3.88;;;9.30;99.90;;;;;;10279221;28;86068;-49
2022/01/23 09:09:37;;;;;;;8.40;4.07;;;9.20;99.90;;;;;;10276265;28;86188;-51
2022/01/23 09:14:38;;;;;;;6.78;3.78;;;9.30;99.90;;;;;;10261880;28;87642;-48
2022/01/23 09:19:39;;;;;;;8.63;4.40;;;9.30;99.90;;;;;;10280370;28;85211;-51
2022/01/23 09:24:40;;;;;;;12.32;4.88;;;9.10;99.90;;;;;;10281707;28;84374;-46
2022/01/23 09:29:42;;;;;;;6.13;3.63;;;9.00;99.90;;;;;;10283025;28;84180;-49
2022/01/23 09:34:44;;;;;;;7.97;3.80;;;8.80;99.90;;;;;;10291394;28;84595;-45
2022/01/23 09:39:46;;;;;;;8.13;4.10;;;8.80;99.90;;;;;;10280963;28;86005;-46
2022/01/23 09:44:51;;;;;;;7.20;4.43;;;8.70;99.90;;;;;;10284132;28;84083;-46
2022/01/23 09:49:54;;;;;;;7.30;3.63;;;8.70;99.90;;;;;;10279104;28;85564;-44
2022/01/23 09:55:01;;;;;;;8.82;3.95;;;8.70;99.90;;;;;;10288616;28;84916;-48
2022/01/23 10:00:06;;;;;;;6.90;3.42;;;8.70;99.90;;;;;;10277264;28;87256;-48
2022/01/23 10:05:14;;;;;;;6.57;3.58;;;8.60;99.90;;;;;;10292145;28;84552;-46
2022/01/23 10:10:22;;;;;;;6.13;3.08;;;8.70;99.90;;;;;;10294501;28;84820;-51
2022/01/23 10:15:27;;;;;;;7.80;3.60;;;8.90;99.90;;;;;;10293809;28;84898;-49
2022/01/23 10:20:29;;;;;;;6.22;2.85;;;8.80;99.90;;;;;;10294624;28;84769;-48
2022/01/23 10:25:32;;;;;;;5.47;2.95;;;8.80;99.90;;;;;;10293641;28;84424;-47
2022/01/23 10:30:38;;;;;;;4.82;2.38;;;8.90;99.90;;;;;;10294941;28;84977;-48
2022/01/23 10:35:55;;;;;;;4.47;2.38;;;8.90;99.90;;;;;;10294736;28;84034;-48
2022/01/23 10:41:06;;;;;;;4.70;2.60;;;9.00;99.90;;;;;;10293438;28;84903;-46
2022/01/23 10:51:50;;;;;;;3.92;2.10;;;9.20;1.00;;;;;;10221514;28;85025;-49
2022/01/23 10:57:00;;;;;;;4.03;2.08;;;9.20;1.00;;;;;;10299443;28;84184;-46
2022/01/23 11:02:05;;;;;;;4.68;2.60;;;9.20;1.00;;;;;;10299859;28;85233;-49
2022/01/23 11:07:07;;;;;;;5.13;1.90;;;9.30;1.00;;;;;;10294777;28;84086;-51
2022/01/23 11:12:26;;;;;;;6.75;3.05;;;9.10;1.00;;;;;;10294117;28;85379;-53
2022/01/23 11:17:27;;;;;;;3.55;1.45;;;9.40;1.00;;;;;;10295579;28;85184;-48
2022/01/23 11:22:32;;;;;;;2.85;1.17;;;9.40;1.00;;;;;;10294810;28;84825;-46
2022/01/23 11:27:38;;;;;;;3.00;1.20;;;9.20;1.00;;;;;;10289680;28;84151;-51
2022/01/23 11:32:41;;;;;;;2.20;1.30;;;9.00;1.00;;;;;;10282989;28;84569;-49
2022/01/23 11:37:51;;;;;;;2.05;1.10;;;9.00;1.00;;;;;;10295577;22;85061;-50
2022/01/23 11:53:50;;;;;;;2.67;1.48;;;8.70;1.00;;;;;;10278789;28;84265;-46
2022/01/23 11:59:31;;;;;;;1.45;0.88;;;8.70;1.00;;;;;;10272963;28;84975;-51
2022/01/23 12:04:33;;;;;;;2.42;0.68;;;8.60;1.00;;;;;;10287449;28;84919;-48
2022/01/23 12:09:34;;;;;;;1.05;0.60;;;8.60;1.00;;;;;;10290377;28;84418;-46
2022/01/23 12:19:57;;;;;;;1.65;0.50;;;8.60;1.00;;;;;;10289285;28;85145;-46
2022/01/23 12:25:06;;;;;;;0.82;0.60;;;8.50;1.00;;;;;;10294908;28;85271;-46
2022/01/23 12:30:22;;;;;;;2.10;0.30;;;8.50;1.00;;;;;;10298673;28;85565;-48
2022/01/23 12:35:39;;;;;;;0.80;0.60;;;8.40;1.00;;;;;;10288757;28;85034;-49
2022/01/23 12:40:46;;;;;;;2.10;1.20;;;8.40;1.00;;;;;;10254819;28;84202;-46
2022/01/23 12:45:55;;;;;;;1.08;0.73;;;8.40;1.00;;;;;;10285651;28;84248;-46
2022/01/23 12:51:02;;;;;;;1.77;0.85;;;8.40;1.00;;;;;;10309310;28;84686;-47
2022/01/23 12:56:09;;;;;;;1.92;0.60;;;8.40;1.00;;;;;;10284552;28;84330;-48
2022/01/23 13:01:24;;;;;;;1.27;0.70;;;8.40;1.00;;;;;;10288097;28;85385;-47
2022/01/23 13:06:30;;;;;;;2.15;0.77;;;8.40;1.00;;;;;;10292645;28;84974;-45
2022/01/23 13:16:38;;;;;;;0.88;0.57;;;8.40;1.00;;;;;;10293243;28;85132;-45
2022/01/23 13:32:38;;;;;;;1.88;0.80;;;8.40;1.00;;;;;;10291486;28;86010;-46
2022/01/23 13:37:42;;;;;;;2.90;1.20;;;8.40;1.00;;;;;;10291436;28;84209;-46
2022/01/23 13:53:23;;;;;;;2.22;1.20;;;8.60;1.00;;;;;;10290335;28;84474;-53
2022/01/23 14:03:27;;;;;;;2.38;1.38;;;8.40;1.00;;;;;;10291468;28;84913;-46
2022/01/23 14:08:27;;;;;;;2.28;1.17;;;8.40;1.00;;;;;;10284867;28;85004;-46
2022/01/23 14:13:28;;;;;;;2.83;1.48;;;8.50;1.00;;;;;;10289475;28;86438;-47
2022/01/23 14:18:31;;;;;;;1.90;1.08;;;8.50;1.00;;;;;;10290965;28;84204;-45
2022/01/23 14:23:34;;;;;;;2.22;1.52;;;8.40;1.00;;;;;;10283508;28;85045;-45
2022/01/23 14:28:45;;;;;;;3.80;1.60;;;8.40;1.00;;;;;;10282841;28;84174;-47
2022/01/23 14:33:51;;;;;;;3.65;1.60;;;8.40;1.00;;;;;;10288804;28;84971;-47
2022/01/23 14:38:59;;;;;;;1.85;1.20;;;8.50;1.00;;;;;;10288057;28;84292;-47
2022/01/23 14:44:02;;;;;;;3.55;1.65;;;8.40;1.00;;;;;;10290703;28;85090;-46
2022/01/23 14:49:10;;;;;;;2.55;1.50;;;8.50;1.00;;;;;;10288315;28;85094;-45
2022/01/23 14:54:10;;;;;;;5.43;2.17;;;8.50;1.00;;;;;;10285906;28;84236;-47
2022/01/23 14:59:12;;;;;;;5.35;2.17;;;8.40;1.00;;;;;;10281279;28;84271;-46
2022/01/23 15:04:15;;;;;;;3.67;2.17;;;8.40;1.00;;;;;;10285378;28;84548;-46
2022/01/23 15:09:19;;;;;;;4.30;2.10;;;8.30;1.00;;;;;;10286021;28;85033;-47
2022/01/23 15:14:20;;;;;;;4.00;2.25;;;8.30;1.00;;;;;;10275166;28;84716;-46
2022/01/23 15:19:20;;;;;;;4.40;2.15;;;8.20;1.00;;;;;;10285417;28;84753;-49
2022/01/23 15:24:21;;;;;;;6.30;2.85;;;8.10;1.00;;;;;;10289689;28;84092;-48
2022/01/23 15:29:22;;;;;;;4.85;2.70;;;8.20;1.00;;;;;;10284275;28;84322;-47
2022/01/23 15:34:23;;;;;;;6.70;2.80;;;8.20;1.00;;;;;;10272937;28;84838;-46
2022/01/23 15:39:25;;;;;;;5.82;2.55;;;8.20;1.00;;;;;;10281646;28;84927;-45
2022/01/23 15:44:26;;;;;;;5.22;2.88;;;8.20;1.00;;;;;;10295790;28;84200;-45
2022/01/23 15:49:27;;;;;;;7.18;2.35;;;8.20;1.00;;;;;;10300538;28;84964;-59
2022/01/23 15:54:29;;;;;;;3.97;1.90;;;8.20;1.00;;;;;;10279845;28;84111;-48
2022/01/23 15:59:30;;;;;;;4.88;2.50;;;8.10;1.00;;;;;;10292877;28;84637;-45
2022/01/23 16:04:34;;;;;;;7.90;2.75;;;8.20;1.00;;;;;;10275677;28;84845;-46
2022/01/23 16:09:34;;;;;;;5.55;2.75;;;8.10;1.00;;;;;;10263103;28;84301;-47
2022/01/23 16:14:35;;;;;;;6.65;3.60;;;8.20;1.00;;;;;;10258493;28;85081;-46
2022/01/23 16:19:36;;;;;;;8.18;2.40;;;8.00;1.00;;;;;;10258678;28;84132;-48
2022/01/23 16:24:37;;;;;;;5.05;2.47;;;8.00;1.00;;;;;;10273794;28;84219;-50
2022/01/23 16:29:37;;;;;;;8.57;2.35;;;8.10;1.00;;;;;;10291862;28;84201;-47
2022/01/23 16:34:38;;;;;;;4.78;2.22;;;8.00;1.00;;;;;;10282178;28;84475;-46
2022/01/23 16:39:38;;;;;;;5.82;2.78;;;7.90;1.00;;;;;;10300309;28;85439;-46
2022/01/23 16:44:40;;;;;;;6.97;2.33;;;7.90;1.00;;;;;;10321696;28;84156;-45
2022/01/23 16:49:41;;;;;;;7.35;2.10;;;8.00;1.00;;;;;;10320196;28;84929;-48
2022/01/23 16:54:43;;;;;;;4.60;2.55;;;7.80;1.00;;;;;;10332508;28;84943;-47
2022/01/23 16:59:44;;;;;;;5.65;2.60;;;7.80;1.00;;;;;;10314528;28;85021;-48
2022/01/23 17:04:44;;;;;;;4.10;1.98;;;7.80;1.00;;;;;;10298855;28;85492;-47
2022/01/23 17:09:45;;;;;;;5.00;2.28;;;7.80;1.00;;;;;;10298698;28;84275;-49
2022/01/23 17:14:45;;;;;;;4.07;1.98;;;7.80;1.00;;;;;;10322004;28;84021;-48
2022/01/23 17:19:46;;;;;;;3.60;2.22;;;7.90;1.00;;;;;;10326445;28;84669;-48
2022/01/23 17:24:47;;;;;;;4.43;1.90;;;7.80;1.00;;;;;;10287211;28;84876;-48
2022/01/23 17:29:48;;;;;;;4.07;2.22;;;7.90;1.00;;;;;;10298645;28;84950;-47
2022/01/23 17:34:48;;;;;;;4.18;1.92;;;7.90;1.00;;;;;;10297024;28;84112;-48
2022/01/23 17:39:49;;;;;;;4.15;2.15;;;7.90;1.00;;;;;;10294007;22;84150;-47
2022/01/23 17:44:51;;;;;;;2.97;1.80;;;7.90;1.00;;;;;;10243529;28;84915;-48
2022/01/23 17:50:14;;;;;;;6.32;2.67;;;7.80;1.00;;;;;;10255804;28;84028;-48
2022/01/23 17:55:16;;;;;;;5.40;2.78;;;7.90;1.00;;;;;;10277389;28;86818;-47
2022/01/23 18:00:17;;;;;;;6.00;3.00;;;8.00;1.00;;;;;;10249534;28;86033;-54
2022/01/23 18:05:18;;;;;;;10.82;3.85;;;7.90;1.00;;;;;;10270843;28;84349;-52
2022/01/23 18:10:19;;;;;;;10.50;5.35;;;7.90;1.00;;;;;;10272101;28;84233;-46
2022/01/23 18:15:21;;;;;;;11.25;5.63;;;7.90;1.00;;;;;;10267681;28;85162;-53
2022/01/23 18:20:22;;;;;;;10.95;5.50;;;7.80;1.00;;;;;;10258732;28;85659;-48
2022/01/23 18:25:26;;;;;;;10.68;5.25;;;7.80;1.00;;;;;;10252843;28;84925;-57
2022/01/23 18:30:28;;;;;;;12.95;5.82;;;7.80;1.00;;;;;;10256332;28;84116;-48
2022/01/23 18:35:29;;;;;;;15.43;8.27;;;7.70;1.00;;;;;;10240063;28;85334;-51
2022/01/23 18:40:31;;;;;;;14.13;6.72;;;7.70;1.00;;;;;;10250322;28;86616;-50
2022/01/23 18:45:32;;;;;;;14.07;7.43;;;7.60;1.00;;;;;;10284099;28;86864;-50
2022/01/23 18:50:34;;;;;;;11.73;6.60;;;7.60;1.00;;;;;;10288789;28;84211;-50
2022/01/23 18:55:36;;;;;;;17.83;8.52;;;7.60;1.00;;;;;;10254737;28;86030;-48
2022/01/23 19:00:41;;;;;;;17.73;7.70;;;7.60;1.00;;;;;;10251202;28;85014;-46
2022/01/23 19:05:42;;;;;;;16.17;8.10;;;7.60;1.00;;;;;;10242850;28;85834;-46
2022/01/23 19:10:44;;;;;;;16.33;8.00;;;7.50;1.00;;;;;;10238882;28;85676;-49
2022/01/23 19:15:47;;;;;;;19.95;8.85;;;7.50;1.00;;;;;;10241850;28;84865;-48
2022/01/23 19:20:47;;;;;;;14.80;6.90;;;7.40;1.00;;;;;;10264797;28;84432;-53
2022/01/23 19:25:51;;;;;;;16.08;7.53;;;7.30;4.90;;;;;;10246602;28;86100;-49
2022/01/23 19:30:54;;;;;;;15.32;6.22;;;7.40;1.00;;;;;;10248670;28;84297;-49
2022/01/23 19:35:56;;;;;;;17.10;8.63;;;7.40;1.00;;;;;;10248567;28;84695;-49
2022/01/23 19:46:02;;;;;;;13.57;6.53;;;7.40;1.00;;;;;;10251218;28;84846;-51
2022/01/23 19:51:02;;;;;;;12.20;5.85;;;7.40;9.80;;;;;;10235981;28;84903;-59
2022/01/23 19:56:03;;;;;;;12.82;6.40;;;7.40;1.00;;;;;;10254307;28;84891;-53
2022/01/23 20:01:05;;;;;;;14.10;6.82;;;7.50;1.00;;;;;;10288910;28;84111;-55
2022/01/23 20:06:09;;;;;;;12.82;6.03;;;7.40;1.00;;;;;;10289451;28;84078;-48
2022/01/23 20:11:19;;;;;;;12.95;6.40;;;7.40;1.00;;;;;;10288361;28;84215;-54
2022/01/23 20:16:20;;;;;;;15.88;8.02;;;7.40;1.00;;;;;;10288396;28;85155;-53
2022/01/23 20:21:20;;;;;;;13.18;6.80;;;7.40;1.00;;;;;;10289634;28;84891;-49
2022/01/23 20:26:21;;;;;;;12.75;6.57;;;7.40;14.10;;;;;;10263707;28;84291;-48
2022/01/23 20:31:22;;;;;;;22.67;8.82;;;7.30;18.50;;;;;;10267899;28;84261;-49
2022/01/23 20:36:22;;;;;;;12.98;5.97;;;7.20;33.70;;;;;;10270122;28;86026;-48
2022/01/23 20:41:23;;;;;;;12.77;6.65;;;7.20;24.70;;;;;;10250349;28;84264;-48
2022/01/23 20:46:25;;;;;;;13.43;6.63;;;7.30;27.30;;;;;;10253008;28;84222;-51
2022/01/23 20:51:35;;;;;;;16.75;7.15;;;7.30;21.10;;;;;;10252523;28;84258;-51
2022/01/23 20:56:35;;;;;;;13.82;6.47;;;7.30;2.00;;;;;;10243296;28;84963;-56
2022/01/23 21:01:37;;;;;;;13.05;6.47;;;7.40;1.00;;;;;;10235515;28;86304;-51
2022/01/23 21:06:38;;;;;;;21.20;7.10;;;7.40;1.00;;;;;;10212110;28;84962;-54
2022/01/23 21:11:39;;;;;;;15.25;7.05;;;7.30;1.00;;;;;;10215180;28;84846;-49
2022/01/23 21:42:54;;;;;;;13.98;6.70;;;7.10;2.10;;;;;;10251802;28;85383;-50
2022/01/23 21:47:55;;;;;;;16.13;7.30;;;7.00;14.00;;;;;;10225681;28;87192;-49
2022/01/23 21:52:57;;;;;;;13.63;6.32;;;7.00;27.30;;;;;;10249948;28;84903;-51
2022/01/23 21:57:57;;;;;;;11.82;6.13;;;7.00;50.10;;;;;;10248828;28;84981;-52
2022/01/23 22:02:58;;;;;;;11.57;5.82;;;6.90;36.60;;;;;;10246868;28;85181;-53
2022/01/23 22:08:01;;;;;;;13.55;5.05;;;6.90;1.00;;;;;;10263970;28;84802;-50
2022/01/23 22:18:11;;;;;;;11.52;4.45;;;6.80;1.00;;;;;;10248406;28;84951;-49
2022/01/23 22:23:17;;;;;;;13.52;4.60;;;6.80;1.00;;;;;;10253412;28;84398;-46
2022/01/23 22:28:18;;;;;;;9.80;5.10;;;6.90;1.00;;;;;;10265935;28;84934;-51
2022/01/23 22:33:18;;;;;;;12.05;5.47;;;6.90;1.00;;;;;;10243380;28;85958;-50
2022/01/23 22:38:27;;;;;;;12.85;5.38;;;6.90;1.00;;;;;;10257845;28;87036;-50
2022/01/23 22:43:31;;;;;;;9.77;5.00;;;6.90;1.00;;;;;;10249408;28;85122;-54
2022/01/23 22:48:32;;;;;;;10.88;4.90;;;6.90;1.00;;;;;;10247319;28;87413;-54
2022/01/23 22:53:33;;;;;;;11.43;5.00;;;7.00;1.00;;;;;;10249227;28;84247;-48
2022/01/23 22:58:34;;;;;;;7.65;4.55;;;7.00;1.00;;;;;;10248517;28;84867;-52
2022/01/23 23:03:35;;;;;;;9.27;4.57;;;7.00;1.00;;;;;;10245148;28;87015;-52
2022/01/23 23:08:36;;;;;;;8.38;4.07;;;7.00;1.00;;;;;;10276671;28;85812;-48
2022/01/23 23:13:40;;;;;;;9.48;4.75;;;7.10;1.00;;;;;;10288074;28;84275;-49
2022/01/23 23:18:44;;;;;;;12.77;4.70;;;6.90;1.00;;;;;;10287779;28;84920;-48
2022/01/23 23:23:45;;;;;;;12.48;4.72;;;6.90;1.00;;;;;;10264849;28;84917;-48
2022/01/23 23:28:46;;;;;;;14.45;5.65;;;7.00;1.00;;;;;;10245256;28;84263;-48
2022/01/23 23:33:47;;;;;;;12.65;5.38;;;7.00;1.00;;;;;;10247257;28;84939;-48
2022/01/23 23:38:48;;;;;;;14.20;5.65;;;7.00;1.00;;;;;;10279295;22;84791;-50
2022/01/23 23:49:00;;;;;;;16.17;7.18;;;7.00;1.00;;;;;;10246609;28;84403;-51
2022/01/23 23:54:05;;;;;;;15.18;6.63;;;6.90;1.00;;;;;;10259484;28;84981;-50
2022/01/23 23:59:06;;;;;;;16.17;6.10;;;6.80;16.70;;;;;;10278455;28;84081;-48
